YCCYYLRE

Guest
Details From YCCY - Cloncurry
To YLRE - Longreach
Flight Number -
Tags generated
Created
Modified
Stats Distance 271 nm / 502 km
Max Altitude 35,000 ft / 10,668 m
Waypoints 4
Social Downloads 0
Likes 0
Share VATSIM

Download

Looking for another format? Having issues loading an existing format? Contact us
Advertisement - Login to hide

Notes

Basic altitude profile: - Ascent Rate: 2500ft/min - Ascent Speed: 250kts - Cruise Altitude: 35000ft - Cruise Speed: 420kts - Descent Rate: 1500ft/min - Descent Speed: 250kts Options: - Use NATs: yes - Use PACOTS: yes - Use low airways: yes - Use high airways: yes

Route

YCCY SARIK J89 LRE YLRE

ID Type Via Altitude Latitude Longitude Leg Dist Tot Dist Heading (true) Name
O YCCY APT - 0 ft / 0 m -20.66704˚ 140.50533˚ - 0 nm - Cloncurry
SARIK FIX - 35,000 ft / 10,668 m -22.00889˚ 141.76250˚ 106 nm 106 nm 139° / 139° -
LRE VOR J89 (AWY-LO) 17,000 ft / 5,182 m -23.42444˚ 144.28222˚ 163 nm 270 nm 122° / 121° LONGREACH VOR
O YLRE APT - 0 ft / 0 m -23.43489˚ 144.27681˚ 0 nm 271 nm 205° / 205° Longreach

Altitude Profile

Advertisement - Login to hide

Weather


0- 5 10 15 20 25 30 35+ Temperature / ° C

Clouds and Precipitation
Forecast for 2017-12-18 12:00 UTC. Updated 15 minutes ago

Ground ~20,000 ft ~40,000 ft Winds

YCCY

Details ICAO YCCY (CNJ)
Name Cloncurry
Region Australia
Timezone Australia/Brisbane (UTC+10.0)
Stats Elevation 616 ft / 188 m (AMSL)
Location -20.667036° 140.505328°
Runways 2
Magnetic Variation 5.965° E

METAR

YCCY 180700Z AUTO 10011KT //// // ////// 41/07 Q1004

Decode

TAF

Not found

Departure Runways

ID Width Length Bearing (true) Bearing (mag) Surface Threshold Offset Overrun Length
06 59 ft / 18 m 3,798 ft / 1,158 m 67.90° 61.93° Asphalt 0 ft / 0 m 0 ft / 0 m
12 98 ft / 30 m 6,561 ft / 2,000 m 128.05° 122.08° Asphalt 0 ft / 0 m 0 ft / 0 m
24 59 ft / 18 m 3,798 ft / 1,158 m 247.90° 241.93° Asphalt 0 ft / 0 m 0 ft / 0 m
30 98 ft / 30 m 6,561 ft / 2,000 m 308.05° 302.08° Asphalt 0 ft / 0 m 0 ft / 0 m

YLRE

Details ICAO YLRE (LRE)
Name Longreach
Region Australia
Timezone Australia/Brisbane (UTC+10.0)
Stats Elevation 627 ft / 191 m (AMSL)
Location -23.434892° 144.276806°
Runways 2
Magnetic Variation 7.501° E

METAR

YLRE 180700Z AUTO 04010KT 030V120 9999 // NCD 39/08 Q1006

Decode

TAF

Not found

Destination Runways

ID Width Length Bearing (true) Bearing (mag) Surface Threshold Offset Overrun Length
04 82 ft / 25 m 6,351 ft / 1,936 m 46.40° 38.90° Asphalt 0 ft / 0 m 200 ft / 61 m
09 151 ft / 46 m 2,490 ft / 759 m 93.15° 85.65° Dirt 0 ft / 0 m 0 ft / 0 m
22 82 ft / 25 m 6,351 ft / 1,936 m 226.40° 218.90° Asphalt 0 ft / 0 m 210 ft / 64 m
27 151 ft / 46 m 2,490 ft / 759 m 273.14° 265.64° Dirt 0 ft / 0 m 0 ft / 0 m